createdAt,value
2022-12-23T00:00:45.399Z,5.25
2022-12-23T00:03:12.813Z,5.43
2022-12-23T00:05:40.628Z,4.57
2022-12-23T00:08:08.575Z,5.53
2022-12-23T00:10:39.618Z,5.05
2022-12-23T00:13:27.143Z,5.32
2022-12-23T00:16:05.391Z,5.13
2022-12-23T00:18:33.012Z,4.22
2022-12-23T00:21:08.854Z,5.00
2022-12-23T00:23:39.068Z,5.53
2022-12-23T00:26:06.534Z,4.35
2022-12-23T00:28:33.893Z,4.60
2022-12-23T00:31:06.466Z,4.90
2022-12-23T00:33:45.142Z,4.25
2022-12-23T00:36:19.408Z,4.70
2022-12-23T00:39:05.282Z,4.18
2022-12-23T00:41:51.692Z,4.18
2022-12-23T00:44:18.820Z,4.07
2022-12-23T00:46:46.082Z,4.25
2022-12-23T00:49:33.495Z,4.35
2022-12-23T00:52:00.981Z,3.72
2022-12-23T00:54:28.299Z,3.90
2022-12-23T00:56:55.322Z,4.78
2022-12-23T00:59:22.231Z,3.88
2022-12-23T01:02:07.921Z,4.55
2022-12-23T01:04:54.101Z,5.15
2022-12-23T01:07:21.709Z,4.88
2022-12-23T01:09:48.557Z,5.10
2022-12-23T01:12:15.866Z,4.30
2022-12-23T01:14:43.435Z,4.65
2022-12-23T01:17:10.607Z,4.70
2022-12-23T01:19:37.841Z,5.47
2022-12-23T01:22:04.986Z,4.93
2022-12-23T01:24:33.150Z,5.95
2022-12-23T01:27:01.097Z,5.07
2022-12-23T01:29:28.955Z,5.05
2022-12-23T01:31:56.084Z,5.65
2022-12-23T01:34:23.224Z,5.43
2022-12-23T01:36:50.252Z,4.53
2022-12-23T01:39:17.367Z,5.35
2022-12-23T01:42:03.215Z,4.35
2022-12-23T01:44:48.921Z,5.30
2022-12-23T01:47:48.245Z,5.20
2022-12-23T01:50:17.844Z,6.43
2022-12-23T01:53:07.718Z,5.82
2022-12-23T01:56:12.971Z,5.40
2022-12-23T01:58:57.417Z,4.88
2022-12-23T02:01:43.864Z,4.45
2022-12-23T02:04:14.790Z,5.15
2022-12-23T02:07:02.033Z,4.28
2022-12-23T02:09:38.009Z,4.63
2022-12-23T02:12:28.669Z,3.95
2022-12-23T02:15:36.323Z,4.13
2022-12-23T02:18:41.369Z,3.80
2022-12-23T02:21:32.042Z,4.15
2022-12-23T02:24:42.311Z,4.57
2022-12-23T02:27:44.119Z,3.50
2022-12-23T02:30:50.186Z,4.18
2022-12-23T02:33:28.397Z,3.95
2022-12-23T02:35:55.351Z,4.18
2022-12-23T02:38:40.499Z,3.45
2022-12-23T02:41:16.819Z,3.55
2022-12-23T02:43:47.134Z,3.85
2022-12-23T02:46:34.946Z,4.22
2022-12-23T02:49:16.975Z,4.32
2022-12-23T02:51:49.581Z,3.90
2022-12-23T02:54:21.997Z,4.88
2022-12-23T02:56:52.412Z,4.15
2022-12-23T02:59:26.732Z,4.38
2022-12-23T03:01:55.181Z,3.80
2022-12-23T03:04:22.111Z,4.05
2022-12-23T03:06:54.881Z,3.70
2022-12-23T03:09:28.856Z,3.85
2022-12-23T03:12:12.084Z,4.53
2022-12-23T03:15:11.218Z,4.88
2022-12-23T03:18:03.021Z,4.60
2022-12-23T03:20:54.304Z,3.70
2022-12-23T03:23:29.044Z,4.43
2022-12-23T03:26:16.856Z,4.05
2022-12-23T03:29:01.224Z,4.03
2022-12-23T03:31:31.765Z,5.03
2022-12-23T03:34:03.283Z,4.00
2022-12-23T03:36:38.210Z,4.10
2022-12-23T03:39:09.953Z,4.20
2022-12-23T03:41:42.500Z,4.28
2022-12-23T03:44:16.335Z,4.15
2022-12-23T03:46:56.617Z,4.32
2022-12-23T03:49:32.767Z,4.40
2022-12-23T03:52:06.478Z,4.03
2022-12-23T03:54:40.961Z,4.75
2022-12-23T03:57:08.868Z,4.43
2022-12-23T03:59:39.442Z,4.13
2022-12-23T04:02:26.043Z,4.18
2022-12-23T04:05:02.834Z,4.70
2022-12-23T04:07:37.283Z,4.68
2022-12-23T04:10:05.624Z,4.00
2022-12-23T04:12:32.959Z,4.20
2022-12-23T04:15:00.121Z,4.45
2022-12-23T04:17:27.942Z,4.45
2022-12-23T04:19:58.519Z,4.90
2022-12-23T04:22:25.387Z,5.20
2022-12-23T04:24:52.409Z,4.95
2022-12-23T04:27:19.438Z,5.32
2022-12-23T04:29:47.312Z,5.07
2022-12-23T04:32:14.380Z,5.03
2022-12-23T04:34:41.387Z,5.55
2022-12-23T04:37:08.413Z,4.53
2022-12-23T04:39:35.390Z,4.18
2022-12-23T04:42:02.388Z,4.88
2022-12-23T04:44:29.260Z,4.95
2022-12-23T04:46:56.234Z,4.28
2022-12-23T04:49:23.272Z,4.55
2022-12-23T04:51:50.382Z,3.97
2022-12-23T04:54:25.203Z,4.45
2022-12-23T04:56:52.220Z,4.15
2022-12-23T04:59:19.198Z,3.70
2022-12-23T05:01:46.288Z,4.05
2022-12-23T05:04:13.700Z,3.70
2022-12-23T05:06:40.709Z,4.18
2022-12-23T05:09:07.993Z,5.70
2022-12-23T05:11:41.727Z,4.32
2022-12-23T05:14:11.078Z,4.90
2022-12-23T05:16:38.628Z,5.10
2022-12-23T05:19:06.152Z,5.18
2022-12-23T05:21:33.475Z,4.85
2022-12-23T05:24:00.574Z,4.95
2022-12-23T05:26:27.705Z,3.92
2022-12-23T05:28:55.374Z,3.90
2022-12-23T05:31:22.393Z,3.70
2022-12-23T05:33:49.482Z,3.45
2022-12-23T05:36:16.563Z,3.45
2022-12-23T05:38:43.521Z,4.05
2022-12-23T05:41:10.513Z,3.35
2022-12-23T05:43:37.642Z,3.20
2022-12-23T05:46:04.769Z,3.42
2022-12-23T05:48:31.867Z,2.70
2022-12-23T05:50:58.981Z,3.88
2022-12-23T05:53:26.382Z,2.63
2022-12-23T05:55:53.549Z,2.88
2022-12-23T05:58:20.596Z,2.90
2022-12-23T06:00:47.754Z,3.60
2022-12-23T06:03:15.017Z,3.63
2022-12-23T06:05:43.819Z,3.38
2022-12-23T06:08:10.876Z,3.83
2022-12-23T06:10:37.819Z,3.33
2022-12-23T06:13:06.184Z,4.22
2022-12-23T06:15:33.195Z,3.97
2022-12-23T06:18:00.009Z,3.67
2022-12-23T06:20:27.353Z,3.55
2022-12-23T06:22:54.402Z,4.32
2022-12-23T06:25:21.678Z,3.33
2022-12-23T06:27:48.816Z,3.80
2022-12-23T06:30:16.293Z,3.35
2022-12-23T06:32:43.316Z,4.43
2022-12-23T06:35:10.639Z,3.60
2022-12-23T06:37:37.743Z,4.20
2022-12-23T06:40:08.545Z,3.65
2022-12-23T06:42:35.455Z,4.35
2022-12-23T06:45:02.530Z,3.95
2022-12-23T06:47:29.573Z,4.03
2022-12-23T06:49:56.503Z,3.70
2022-12-23T06:52:23.535Z,5.10
2022-12-23T06:54:50.368Z,6.75
2022-12-23T06:57:17.308Z,6.68
2022-12-23T06:59:44.252Z,7.50
2022-12-23T07:02:12.307Z,7.43
2022-12-23T07:04:39.448Z,4.55
2022-12-23T07:07:06.606Z,5.72
2022-12-23T07:09:33.657Z,4.68
2022-12-23T07:12:03.338Z,5.57
2022-12-23T07:14:30.463Z,5.53
2022-12-23T07:16:58.124Z,5.30
2022-12-23T07:19:25.572Z,5.45
2022-12-23T07:21:52.640Z,4.93
2022-12-23T07:24:19.496Z,4.95
2022-12-23T07:26:46.492Z,4.82
2022-12-23T07:29:13.573Z,4.47
2022-12-23T07:31:41.345Z,4.68
2022-12-23T07:34:08.917Z,4.57
2022-12-23T07:36:36.180Z,4.45
2022-12-23T07:39:04.123Z,4.35
2022-12-23T07:41:31.168Z,4.03
2022-12-23T07:43:58.087Z,3.72
2022-12-23T07:46:25.383Z,3.97
2022-12-23T07:48:52.253Z,4.32
2022-12-23T07:51:19.141Z,4.38
2022-12-23T07:53:50.024Z,4.88
2022-12-23T07:56:17.753Z,4.50
2022-12-23T07:58:48.522Z,4.68
2022-12-23T08:01:15.899Z,5.05
2022-12-23T08:03:43.144Z,4.45
2022-12-23T08:06:15.242Z,5.13
2022-12-23T08:08:44.303Z,4.85
2022-12-23T08:11:13.114Z,4.85
2022-12-23T08:13:41.754Z,5.10
2022-12-23T08:16:09.239Z,7.03
2022-12-23T08:18:38.750Z,6.50
2022-12-23T08:21:14.932Z,5.40
2022-12-23T08:23:43.542Z,5.90
2022-12-23T08:26:13.585Z,6.22
2022-12-23T08:28:41.876Z,5.93
2022-12-23T08:31:14.624Z,8.18
2022-12-23T08:33:45.876Z,8.63
2022-12-23T08:36:23.058Z,10.57
2022-12-23T08:38:55.246Z,11.32
2022-12-23T08:41:26.001Z,9.80
2022-12-23T08:43:53.323Z,9.73
2022-12-23T08:46:20.855Z,10.43
2022-12-23T08:48:49.692Z,16.27
2022-12-23T08:51:19.151Z,17.85
2022-12-23T08:53:47.518Z,11.55
2022-12-23T08:56:22.841Z,7.50
2022-12-23T08:58:52.716Z,8.00
2022-12-23T09:01:22.581Z,7.68
2022-12-23T09:03:51.076Z,8.55
2022-12-23T09:06:26.560Z,8.00
2022-12-23T09:08:56.481Z,10.52
2022-12-23T09:11:26.210Z,13.57
2022-12-23T09:13:54.018Z,14.85
2022-12-23T09:16:21.801Z,15.55
2022-12-23T09:18:49.049Z,27.48
2022-12-23T09:21:18.716Z,27.58
2022-12-23T09:23:46.106Z,23.92
2022-12-23T09:26:22.190Z,19.52
2022-12-23T09:28:49.380Z,17.48
2022-12-23T09:31:16.811Z,16.38
2022-12-23T09:33:48.241Z,18.42
2022-12-23T09:36:15.283Z,17.05
2022-12-23T09:38:42.572Z,14.63
2022-12-23T09:41:18.306Z,15.32
2022-12-23T09:43:57.129Z,12.75
2022-12-23T09:46:27.611Z,11.90
2022-12-23T09:49:06.396Z,11.70
2022-12-23T09:51:33.850Z,11.43
2022-12-23T09:54:24.420Z,10.57
2022-12-23T09:56:51.439Z,10.27
2022-12-23T09:59:37.264Z,10.57
2022-12-23T10:02:16.116Z,10.45
2022-12-23T10:05:00.356Z,11.15
2022-12-23T10:07:44.289Z,10.50
2022-12-23T10:10:22.106Z,10.68
2022-12-23T10:12:52.821Z,11.02
2022-12-23T10:15:23.103Z,10.85
2022-12-23T10:17:55.040Z,10.75
2022-12-23T10:20:37.907Z,10.23
2022-12-23T10:23:10.900Z,9.85
2022-12-23T10:25:44.113Z,9.13
2022-12-23T10:28:11.669Z,9.38
2022-12-23T10:31:05.873Z,9.90
2022-12-23T10:33:39.623Z,8.93
2022-12-23T10:36:38.424Z,8.48
2022-12-23T10:39:29.589Z,8.50
2022-12-23T10:42:29.292Z,8.40
2022-12-23T10:45:28.871Z,8.85
2022-12-23T10:48:20.894Z,9.38
2022-12-23T10:51:01.805Z,7.25
2022-12-23T10:53:50.339Z,8.35
2022-12-23T10:56:18.765Z,9.18
2022-12-23T10:58:50.607Z,8.70
2022-12-23T11:01:26.434Z,9.27
2022-12-23T11:04:12.911Z,11.32
2022-12-23T11:06:43.718Z,7.28
2022-12-23T11:09:23.616Z,7.63
2022-12-23T11:12:02.845Z,7.47
2022-12-23T11:14:52.833Z,6.88
2022-12-23T11:17:29.103Z,5.20
2022-12-23T11:20:37.092Z,5.13
2022-12-23T11:23:06.942Z,4.80
2022-12-23T11:25:41.227Z,4.70
2022-12-23T11:28:15.361Z,4.38
2022-12-23T11:31:18.279Z,4.20
2022-12-23T11:34:10.130Z,4.43
2022-12-23T11:36:37.163Z,4.10
2022-12-23T11:39:11.607Z,4.32
2022-12-23T11:41:47.864Z,4.43
2022-12-23T11:44:26.643Z,3.28
2022-12-23T11:46:57.750Z,3.58
2022-12-23T11:49:36.940Z,3.13
2022-12-23T11:52:17.015Z,3.30
2022-12-23T11:54:54.970Z,3.13
2022-12-23T11:57:44.589Z,3.05
2022-12-23T12:00:24.912Z,2.33
2022-12-23T12:02:59.716Z,2.78
2022-12-23T12:05:53.247Z,2.92
2022-12-23T12:08:24.873Z,2.83
2022-12-23T12:10:54.358Z,2.95
2022-12-23T12:13:38.898Z,2.63
2022-12-23T12:16:42.406Z,2.47
2022-12-23T12:19:26.377Z,2.75
2022-12-23T12:21:59.575Z,2.67
2022-12-23T12:24:36.130Z,2.58
2022-12-23T12:27:08.621Z,2.72
2022-12-23T12:30:01.077Z,1.88
2022-12-23T12:32:47.687Z,1.80
2022-12-23T12:35:39.834Z,1.58
2022-12-23T12:38:29.394Z,1.88
2022-12-23T12:41:07.568Z,1.90
2022-12-23T12:43:53.058Z,1.70
2022-12-23T12:47:11.107Z,2.00
2022-12-23T12:50:02.324Z,1.83
2022-12-23T12:52:40.544Z,1.70
2022-12-23T12:55:17.702Z,1.65
2022-12-23T12:57:47.347Z,1.50
2022-12-23T13:00:17.824Z,1.42
2022-12-23T13:03:08.805Z,1.38
2022-12-23T13:05:53.315Z,1.33
2022-12-23T13:08:45.363Z,1.40
2022-12-23T13:11:40.442Z,1.17
2022-12-23T13:14:19.748Z,1.00
2022-12-23T13:17:00.193Z,1.30
2022-12-23T13:19:34.625Z,1.13
2022-12-23T13:22:17.580Z,1.38
2022-12-23T13:25:10.850Z,1.73
2022-12-23T13:27:58.037Z,1.08
2022-12-23T13:30:29.441Z,1.80
2022-12-23T13:33:31.605Z,2.13
2022-12-23T13:36:17.178Z,2.17
2022-12-23T13:38:59.046Z,2.58
2022-12-23T13:41:43.012Z,2.30
2022-12-23T13:44:13.058Z,2.50
2022-12-23T13:47:04.070Z,2.53
2022-12-23T13:49:51.553Z,1.85
2022-12-23T13:53:04.036Z,2.15
2022-12-23T13:56:14.728Z,3.35
2022-12-23T13:58:42.686Z,2.22
2022-12-23T14:01:09.702Z,2.60
2022-12-23T14:03:38.907Z,2.45
2022-12-23T14:06:24.071Z,2.55
2022-12-23T14:08:55.805Z,2.70
2022-12-23T14:11:27.328Z,3.22
2022-12-23T14:14:23.975Z,3.17
2022-12-23T14:17:16.499Z,3.13
2022-12-23T14:20:25.231Z,3.53
2022-12-23T14:23:09.977Z,4.10
2022-12-23T14:25:46.343Z,3.53
2022-12-23T14:28:37.585Z,3.40
2022-12-23T14:31:06.228Z,3.13
2022-12-23T14:33:37.413Z,4.35
2022-12-23T14:36:27.240Z,3.15
2022-12-23T14:39:12.846Z,3.75
2022-12-23T14:41:48.894Z,3.67
2022-12-23T14:44:46.198Z,3.55
2022-12-23T14:47:40.526Z,4.15
2022-12-23T14:50:32.704Z,3.35
2022-12-23T14:53:01.975Z,4.22
2022-12-23T14:55:31.608Z,4.45
2022-12-23T14:58:18.013Z,5.10
2022-12-23T15:00:51.382Z,5.20
2022-12-23T15:03:19.663Z,5.22
2022-12-23T15:05:47.139Z,4.47
2022-12-23T15:08:32.189Z,4.07
2022-12-23T15:11:00.038Z,5.45
2022-12-23T15:13:29.423Z,5.65
2022-12-23T15:16:01.404Z,4.80
2022-12-23T15:18:29.256Z,5.13
2022-12-23T15:21:12.506Z,5.07
2022-12-23T15:23:49.222Z,4.70
2022-12-23T15:26:16.306Z,4.47
2022-12-23T15:28:43.288Z,5.25
2022-12-23T15:31:27.189Z,5.88
2022-12-23T15:34:05.277Z,5.63
2022-12-23T15:36:36.954Z,5.60
2022-12-23T15:39:10.644Z,5.68
2022-12-23T15:41:45.851Z,4.35
2022-12-23T15:44:21.285Z,5.53
2022-12-23T15:46:50.495Z,5.13
2022-12-23T15:49:20.174Z,6.28
2022-12-23T15:52:15.261Z,6.60
2022-12-23T15:55:12.802Z,5.50
2022-12-23T15:57:50.052Z,5.45
2022-12-23T16:00:22.207Z,5.10
2022-12-23T16:03:10.408Z,5.28
2022-12-23T16:05:39.337Z,5.03
2022-12-23T16:08:23.035Z,6.25
2022-12-23T16:11:18.338Z,6.88
2022-12-23T16:14:01.542Z,5.43
2022-12-23T16:16:42.246Z,5.22
2022-12-23T16:19:56.188Z,5.80
2022-12-23T16:22:28.209Z,5.45
2022-12-23T16:25:16.898Z,4.25
2022-12-23T16:28:14.892Z,5.70
2022-12-23T16:30:43.288Z,5.32
2022-12-23T16:33:24.668Z,5.00
2022-12-23T16:35:53.445Z,5.05
2022-12-23T16:38:22.825Z,5.28
2022-12-23T16:40:55.808Z,5.30
2022-12-23T16:43:24.684Z,4.82
2022-12-23T16:45:55.942Z,4.80
2022-12-23T16:48:47.970Z,4.88
2022-12-23T16:51:20.457Z,5.13
2022-12-23T16:53:48.728Z,4.90
2022-12-23T16:56:18.483Z,5.35
2022-12-23T16:58:46.027Z,5.40
2022-12-23T17:01:24.915Z,6.20
2022-12-23T17:03:52.775Z,5.95
2022-12-23T17:06:20.964Z,5.10
2022-12-23T17:08:48.349Z,7.18
2022-12-23T17:11:15.353Z,5.43
2022-12-23T17:13:43.004Z,5.15
2022-12-23T17:16:21.949Z,6.18
2022-12-23T17:18:50.562Z,5.97
2022-12-23T17:21:22.671Z,5.10
2022-12-23T17:23:51.217Z,6.20
2022-12-23T17:26:18.515Z,5.70
2022-12-23T17:28:45.857Z,5.50
2022-12-23T17:31:18.223Z,6.07
2022-12-23T17:33:49.431Z,5.15
2022-12-23T17:36:17.045Z,5.28
2022-12-23T17:38:43.912Z,4.78
2022-12-23T17:41:28.951Z,7.32
2022-12-23T17:43:56.127Z,5.43
2022-12-23T17:46:23.422Z,4.78
2022-12-23T17:48:50.788Z,6.07
2022-12-23T17:51:20.955Z,6.35
2022-12-23T17:53:55.184Z,5.85
2022-12-23T17:56:27.090Z,6.28
2022-12-23T17:58:56.187Z,5.45
2022-12-23T18:01:36.950Z,6.20
2022-12-23T18:04:05.085Z,5.53
2022-12-23T18:06:41.245Z,6.82
2022-12-23T18:09:14.060Z,6.30
2022-12-23T18:11:44.721Z,6.43
2022-12-23T18:14:17.908Z,6.45
2022-12-23T18:16:44.855Z,5.97
2022-12-23T18:19:18.171Z,5.20
2022-12-23T18:21:46.642Z,6.22
2022-12-23T18:24:14.032Z,6.78
2022-12-23T18:26:40.959Z,6.68
2022-12-23T18:29:08.096Z,6.28
2022-12-23T18:31:37.569Z,6.57
2022-12-23T18:34:04.742Z,6.72
2022-12-23T18:36:34.040Z,6.22
2022-12-23T18:39:01.036Z,6.28
2022-12-23T18:41:28.471Z,5.78
2022-12-23T18:43:56.009Z,5.93
2022-12-23T18:46:23.122Z,6.43
2022-12-23T18:48:51.805Z,6.20
2022-12-23T18:51:22.367Z,6.18
2022-12-23T18:53:49.780Z,9.02
2022-12-23T18:56:24.296Z,5.47
2022-12-23T18:58:51.400Z,7.82
2022-12-23T19:01:21.808Z,5.63
2022-12-23T19:03:48.944Z,5.22
2022-12-23T19:06:16.674Z,5.80
2022-12-23T19:08:44.664Z,5.90
2022-12-23T19:11:20.589Z,6.30
2022-12-23T19:13:48.669Z,5.32
2022-12-23T19:16:19.129Z,7.05
2022-12-23T19:18:47.709Z,5.18
2022-12-23T19:21:15.794Z,6.30
2022-12-23T19:23:43.380Z,5.25
2022-12-23T19:26:11.905Z,6.70
2022-12-23T19:28:41.394Z,10.70
2022-12-23T19:31:13.268Z,8.13
2022-12-23T19:33:41.650Z,5.90
2022-12-23T19:36:19.368Z,7.78
2022-12-23T19:38:46.701Z,6.35
2022-12-23T19:41:13.729Z,5.72
2022-12-23T19:43:44.009Z,5.90
2022-12-23T19:46:12.597Z,5.97
2022-12-23T19:48:40.297Z,6.05
2022-12-23T19:51:16.337Z,7.20
2022-12-23T19:53:44.940Z,6.80
2022-12-23T19:56:17.051Z,6.38
2022-12-23T19:58:44.963Z,5.70
2022-12-23T20:01:24.237Z,7.65
2022-12-23T20:03:53.474Z,6.03
2022-12-23T20:06:29.434Z,4.78
2022-12-23T20:09:00.847Z,5.43
2022-12-23T20:11:30.637Z,6.60
2022-12-23T20:13:59.665Z,6.18
2022-12-23T20:16:30.084Z,6.38
2022-12-23T20:18:59.250Z,6.10
2022-12-23T20:21:26.761Z,7.25
2022-12-23T20:23:53.948Z,6.75
2022-12-23T20:26:21.827Z,6.57
2022-12-23T20:28:48.908Z,6.43
2022-12-23T20:31:24.855Z,6.38
2022-12-23T20:33:53.205Z,7.85
2022-12-23T20:36:23.723Z,6.50
2022-12-23T20:38:52.220Z,7.13
2022-12-23T20:41:21.810Z,6.43
2022-12-23T20:44:23.365Z,6.43
2022-12-23T20:46:36.328Z,6.97
2022-12-23T20:49:03.752Z,6.10
2022-12-23T20:51:30.732Z,6.35
2022-12-23T20:54:01.177Z,8.35
2022-12-23T20:56:30.425Z,6.57
2022-12-23T20:58:59.350Z,6.30
2022-12-23T21:01:41.485Z,6.50
2022-12-23T21:04:15.810Z,6.15
2022-12-23T21:06:44.452Z,6.07
2022-12-23T21:09:13.408Z,6.00
2022-12-23T21:11:43.475Z,5.63
2022-12-23T21:14:11.050Z,6.55
2022-12-23T21:16:39.239Z,6.30
2022-12-23T21:19:08.748Z,6.57
2022-12-23T21:21:35.901Z,6.90
2022-12-23T21:24:04.960Z,5.70
2022-12-23T21:26:33.925Z,6.35
2022-12-23T21:29:04.070Z,5.53
2022-12-23T21:31:33.493Z,6.20
2022-12-23T21:34:00.910Z,6.53
2022-12-23T21:36:34.000Z,6.53
2022-12-23T21:39:01.577Z,6.88
2022-12-23T21:41:31.066Z,6.80
2022-12-23T21:43:59.440Z,6.30
2022-12-23T21:46:28.242Z,6.70
2022-12-23T21:48:59.145Z,8.32
2022-12-23T21:51:38.878Z,5.50
2022-12-23T21:54:08.273Z,6.47
2022-12-23T21:56:35.990Z,6.43
2022-12-23T21:59:08.791Z,6.07
2022-12-23T22:01:35.738Z,6.15
2022-12-23T22:04:02.888Z,6.63
2022-12-23T22:06:32.868Z,5.65
2022-12-23T22:09:00.327Z,6.43
2022-12-23T22:11:29.790Z,5.82
2022-12-23T22:14:02.321Z,6.38
2022-12-23T22:16:30.843Z,8.18
2022-12-23T22:18:59.828Z,6.40
2022-12-23T22:21:28.713Z,6.97
2022-12-23T22:23:56.918Z,6.55
2022-12-23T22:26:26.765Z,5.80
2022-12-23T22:28:59.019Z,7.13
2022-12-23T22:31:45.019Z,6.47
2022-12-23T22:34:17.603Z,5.97
2022-12-23T22:36:45.174Z,5.75
2022-12-23T22:39:20.068Z,6.00
2022-12-23T22:41:49.059Z,5.70
2022-12-23T22:44:16.565Z,7.63
2022-12-23T22:46:43.798Z,5.82
2022-12-23T22:49:15.045Z,6.72
2022-12-23T22:51:43.094Z,7.07
2022-12-23T22:54:10.448Z,6.03
2022-12-23T22:56:37.374Z,7.03
2022-12-23T22:59:04.987Z,5.90
2022-12-23T23:01:34.005Z,6.18
2022-12-23T23:04:02.675Z,6.18
2022-12-23T23:06:38.273Z,6.32
2022-12-23T23:09:26.182Z,6.55
2022-12-23T23:11:53.201Z,6.07
2022-12-23T23:14:21.135Z,6.32
2022-12-23T23:16:48.126Z,6.30
2022-12-23T23:19:19.846Z,6.72
2022-12-23T23:21:48.865Z,6.00
2022-12-23T23:24:15.987Z,7.28
2022-12-23T23:26:42.903Z,6.45
2022-12-23T23:29:09.764Z,7.03
2022-12-23T23:31:42.429Z,7.50
2022-12-23T23:34:10.217Z,6.22
2022-12-23T23:36:37.405Z,6.55
2022-12-23T23:39:04.471Z,6.72
2022-12-23T23:41:31.419Z,5.82
2022-12-23T23:43:58.309Z,6.55
2022-12-23T23:46:25.321Z,6.10
2022-12-23T23:48:52.204Z,7.45
2022-12-23T23:51:19.393Z,8.57
2022-12-23T23:53:46.331Z,6.63
2022-12-23T23:56:13.380Z,6.20
2022-12-23T23:58:40.807Z,6.18
